N87JW KSNA-KSTS
Flight info
| Callsign | N87JW |
|---|---|
| Flight time | 2h 4m |
| Altitude | 20000 |
| Route | MUSEL8 SLI V459 LHS GMN AVE OAK VNYRD1 |
| Aircraft | PC12/L-SDFGRWY/S |
Departure
| Time | 2026-04-24 23:48 |
|---|---|
| Airport | John Wayne Orange County International Airport (KSNA) |
Arrival
| Time | 2026-04-25 01:53 |
|---|---|
| Airport | Charles M. Schulz Sonoma County Airport (KSTS) |
| Time | Latitude | Longitude | Altitude | Speed | Heading |
|---|---|---|---|---|---|
| 2026-04-24 23:30 | 33.67477 | -117.87160 | 54 ft | 0 kts | 356° |
| 2026-04-24 23:42 | 33.67482 | -117.87160 | 52 ft | 2 kts | 3° |
| 2026-04-24 23:42 | 33.67494 | -117.87135 | 53 ft | 4 kts | 96° |
| 2026-04-24 23:42 | 33.67492 | -117.87103 | 55 ft | 4 kts | 85° |
| 2026-04-24 23:43 | 33.67507 | -117.87073 | 53 ft | 5 kts | 25° |
| 2026-04-24 23:43 | 33.67552 | -117.87047 | 56 ft | 9 kts | 28° |
| 2026-04-24 23:43 | 33.67613 | -117.87007 | 57 ft | 12 kts | 27° |
| 2026-04-24 23:43 | 33.67696 | -117.86955 | 55 ft | 15 kts | 28° |
| 2026-04-24 23:44 | 33.67759 | -117.86913 | 52 ft | 0 kts | 30° |
| 2026-04-24 23:45 | 33.67759 | -117.86912 | 52 ft | 0 kts | 29° |
| 2026-04-24 23:45 | 33.67764 | -117.86910 | 53 ft | 3 kts | 28° |
| 2026-04-24 23:45 | 33.67803 | -117.86882 | 53 ft | 9 kts | 51° |
| 2026-04-24 23:46 | 33.67808 | -117.86832 | 50 ft | 5 kts | 120° |
| 2026-04-24 23:46 | 33.67793 | -117.86801 | 55 ft | 4 kts | 118° |
| 2026-04-24 23:46 | 33.67776 | -117.86764 | 54 ft | 5 kts | 139° |
| 2026-04-24 23:46 | 33.67758 | -117.86766 | 56 ft | 0 kts | 208° |
| 2026-04-24 23:47 | 33.67737 | -117.86779 | 55 ft | 19 kts | 207° |
| 2026-04-24 23:47 | 33.67450 | -117.86958 | 55 ft | 69 kts | 207° |
| 2026-04-24 23:47 | 33.66985 | -117.87274 | 211 ft | 85 kts | 211° |
| 2026-04-24 23:48 | 33.66431 | -117.87686 | 408 ft | 102 kts | 209° |
| 2026-04-24 23:48 | 33.65786 | -117.88182 | 690 ft | 122 kts | 211° |
| 2026-04-24 23:48 | 33.64983 | -117.88748 | 968 ft | 143 kts | 205° |
| 2026-04-24 23:48 | 33.64045 | -117.89008 | 1596 ft | 135 kts | 183° |
| 2026-04-24 23:49 | 33.63125 | -117.88987 | 2264 ft | 131 kts | 177° |
| 2026-04-24 23:49 | 33.62209 | -117.88893 | 2730 ft | 135 kts | 175° |
| 2026-04-24 23:49 | 33.61249 | -117.88774 | 3104 ft | 144 kts | 175° |
| 2026-04-24 23:49 | 33.60242 | -117.88626 | 3512 ft | 150 kts | 175° |
| 2026-04-24 23:50 | 33.59535 | -117.88526 | 3810 ft | 153 kts | 175° |
| 2026-04-24 23:50 | 33.58485 | -117.88371 | 4301 ft | 152 kts | 183° |
| 2026-04-24 23:50 | 33.57185 | -117.88892 | 4875 ft | 152 kts | 211° |
| 2026-04-24 23:50 | 33.56273 | -117.89532 | 5347 ft | 152 kts | 213° |
| 2026-04-24 23:51 | 33.55352 | -117.90185 | 5780 ft | 156 kts | 212° |
| 2026-04-24 23:51 | 33.54713 | -117.90620 | 6109 ft | 156 kts | 212° |
| 2026-04-24 23:51 | 33.53767 | -117.91246 | 6575 ft | 156 kts | 211° |
| 2026-04-24 23:51 | 33.52828 | -117.91852 | 7044 ft | 154 kts | 212° |
| 2026-04-24 23:52 | 33.51872 | -117.92463 | 7469 ft | 157 kts | 211° |
| 2026-04-24 23:52 | 33.50903 | -117.93079 | 7914 ft | 158 kts | 212° |
| 2026-04-24 23:52 | 33.49963 | -117.93748 | 8336 ft | 156 kts | 225° |
| 2026-04-24 23:52 | 33.49489 | -117.94878 | 8782 ft | 155 kts | 265° |
| 2026-04-24 23:53 | 33.49782 | -117.96105 | 9235 ft | 160 kts | 303° |
| 2026-04-24 23:53 | 33.50743 | -117.96819 | 9679 ft | 170 kts | 338° |
| 2026-04-24 23:53 | 33.51892 | -117.97190 | 10091 ft | 172 kts | 339° |
| 2026-04-24 23:53 | 33.53052 | -117.97548 | 10490 ft | 173 kts | 339° |
| 2026-04-24 23:54 | 33.54221 | -117.97910 | 10884 ft | 174 kts | 338° |
| 2026-04-24 23:54 | 33.55371 | -117.98268 | 11286 ft | 174 kts | 337° |
| 2026-04-24 23:54 | 33.56495 | -117.98620 | 11691 ft | 175 kts | 336° |
| 2026-04-24 23:54 | 33.57638 | -117.98978 | 12101 ft | 175 kts | 336° |
| 2026-04-24 23:55 | 33.58819 | -117.99348 | 12526 ft | 176 kts | 335° |
| 2026-04-24 23:55 | 33.60005 | -117.99721 | 12948 ft | 176 kts | 335° |
| 2026-04-24 23:55 | 33.61194 | -118.00095 | 13370 ft | 177 kts | 334° |
| 2026-04-24 23:55 | 33.62392 | -118.00471 | 13786 ft | 178 kts | 334° |
| 2026-04-24 23:56 | 33.63592 | -118.00849 | 14158 ft | 179 kts | 334° |
| 2026-04-24 23:56 | 33.64804 | -118.01231 | 14520 ft | 181 kts | 334° |
| 2026-04-24 23:56 | 33.66006 | -118.01608 | 14886 ft | 181 kts | 334° |
| 2026-04-24 23:56 | 33.67231 | -118.01994 | 15253 ft | 182 kts | 333° |
| 2026-04-24 23:57 | 33.68460 | -118.02380 | 15631 ft | 183 kts | 333° |
| 2026-04-24 23:57 | 33.69694 | -118.02769 | 16030 ft | 183 kts | 333° |
| 2026-04-24 23:57 | 33.70928 | -118.03158 | 16524 ft | 184 kts | 332° |
| 2026-04-24 23:57 | 33.72171 | -118.03552 | 17030 ft | 185 kts | 332° |
| 2026-04-24 23:58 | 33.73422 | -118.03948 | 17510 ft | 186 kts | 332° |
| 2026-04-24 23:58 | 33.74681 | -118.04345 | 18008 ft | 187 kts | 332° |
| 2026-04-24 23:58 | 33.75945 | -118.04744 | 18415 ft | 189 kts | 331° |
| 2026-04-24 23:58 | 33.77218 | -118.05146 | 18835 ft | 190 kts | 331° |
| 2026-04-24 23:59 | 33.78470 | -118.05610 | 19255 ft | 185 kts | 324° |
| 2026-04-24 23:59 | 33.79641 | -118.06231 | 19598 ft | 187 kts | 321° |
| 2026-04-24 23:59 | 33.80839 | -118.06931 | 19838 ft | 196 kts | 321° |
| 2026-04-24 23:59 | 33.82122 | -118.07690 | 19870 ft | 214 kts | 322° |
| 2026-04-25 00:00 | 33.83504 | -118.08498 | 19878 ft | 228 kts | 323° |
| 2026-04-25 00:00 | 33.84975 | -118.09344 | 19910 ft | 239 kts | 323° |
| 2026-04-25 00:00 | 33.86483 | -118.10205 | 19905 ft | 247 kts | 324° |
| 2026-04-25 00:00 | 33.88051 | -118.11097 | 19904 ft | 252 kts | 324° |
| 2026-04-25 00:01 | 33.89649 | -118.12009 | 19939 ft | 255 kts | 324° |
| 2026-04-25 00:01 | 33.91261 | -118.12931 | 19946 ft | 258 kts | 324° |
| 2026-04-25 00:01 | 33.92885 | -118.13862 | 19929 ft | 259 kts | 324° |
| 2026-04-25 00:01 | 33.94517 | -118.14799 | 19921 ft | 260 kts | 324° |
| 2026-04-25 00:02 | 33.96152 | -118.15739 | 19929 ft | 260 kts | 324° |
| 2026-04-25 00:02 | 33.97784 | -118.16676 | 19932 ft | 259 kts | 324° |
| 2026-04-25 00:02 | 33.99407 | -118.17610 | 19936 ft | 258 kts | 324° |
| 2026-04-25 00:02 | 34.01027 | -118.18543 | 19934 ft | 258 kts | 324° |
| 2026-04-25 00:03 | 34.02642 | -118.19475 | 19935 ft | 257 kts | 324° |
| 2026-04-25 00:03 | 34.04257 | -118.20408 | 19935 ft | 257 kts | 324° |
| 2026-04-25 00:03 | 34.05868 | -118.21339 | 19945 ft | 257 kts | 324° |
| 2026-04-25 00:03 | 34.07483 | -118.22273 | 19934 ft | 257 kts | 324° |
| 2026-04-25 00:04 | 34.09093 | -118.23205 | 19921 ft | 256 kts | 324° |
| 2026-04-25 00:04 | 34.10705 | -118.24139 | 19927 ft | 256 kts | 324° |
| 2026-04-25 00:04 | 34.12311 | -118.25070 | 19922 ft | 257 kts | 324° |
| 2026-04-25 00:04 | 34.13922 | -118.26003 | 19927 ft | 257 kts | 324° |
| 2026-04-25 00:05 | 34.15532 | -118.26937 | 19926 ft | 257 kts | 324° |
| 2026-04-25 00:05 | 34.17142 | -118.27870 | 19921 ft | 257 kts | 324° |
| 2026-04-25 00:05 | 34.18754 | -118.28804 | 19927 ft | 257 kts | 324° |
| 2026-04-25 00:05 | 34.20365 | -118.29738 | 19929 ft | 257 kts | 324° |
| 2026-04-25 00:06 | 34.21978 | -118.30674 | 19930 ft | 258 kts | 324° |
| 2026-04-25 00:06 | 34.23595 | -118.31613 | 19930 ft | 258 kts | 324° |
| 2026-04-25 00:06 | 34.25212 | -118.32553 | 19939 ft | 258 kts | 323° |
| 2026-04-25 00:06 | 34.26835 | -118.33495 | 19938 ft | 258 kts | 324° |
| 2026-04-25 00:07 | 34.28431 | -118.34422 | 19937 ft | 258 kts | 323° |
| 2026-04-25 00:07 | 34.30049 | -118.35361 | 19934 ft | 257 kts | 323° |
| 2026-04-25 00:07 | 34.31660 | -118.36297 | 19935 ft | 257 kts | 324° |
| 2026-04-25 00:07 | 34.33271 | -118.37235 | 19931 ft | 257 kts | 323° |
| 2026-04-25 00:08 | 34.34879 | -118.38171 | 19933 ft | 256 kts | 324° |
| 2026-04-25 00:08 | 34.36489 | -118.39108 | 19935 ft | 256 kts | 324° |
| 2026-04-25 00:08 | 34.38097 | -118.40045 | 19935 ft | 257 kts | 324° |
| 2026-04-25 00:08 | 34.39708 | -118.40985 | 19932 ft | 257 kts | 324° |
| 2026-04-25 00:09 | 34.41320 | -118.41925 | 19928 ft | 257 kts | 324° |
| 2026-04-25 00:09 | 34.42934 | -118.42867 | 19927 ft | 257 kts | 324° |
| 2026-04-25 00:09 | 34.44548 | -118.43808 | 19934 ft | 257 kts | 324° |
| 2026-04-25 00:09 | 34.46137 | -118.44734 | 19918 ft | 256 kts | 323° |
| 2026-04-25 00:10 | 34.47758 | -118.45681 | 19919 ft | 256 kts | 323° |
| 2026-04-25 00:10 | 34.49363 | -118.46618 | 19916 ft | 256 kts | 323° |
| 2026-04-25 00:10 | 34.50965 | -118.47555 | 19915 ft | 255 kts | 323° |
| 2026-04-25 00:10 | 34.52564 | -118.48490 | 19913 ft | 255 kts | 323° |
| 2026-04-25 00:11 | 34.54146 | -118.49416 | 19910 ft | 256 kts | 323° |
| 2026-04-25 00:11 | 34.55750 | -118.50355 | 19908 ft | 255 kts | 323° |
| 2026-04-25 00:11 | 34.57349 | -118.51292 | 19907 ft | 255 kts | 323° |
| 2026-04-25 00:11 | 34.58949 | -118.52229 | 19899 ft | 254 kts | 323° |
| 2026-04-25 00:12 | 34.60539 | -118.53159 | 19895 ft | 253 kts | 323° |
| 2026-04-25 00:12 | 34.62124 | -118.54089 | 19904 ft | 253 kts | 323° |
| 2026-04-25 00:12 | 34.63713 | -118.55021 | 19906 ft | 254 kts | 323° |
| 2026-04-25 00:12 | 34.65304 | -118.55956 | 19920 ft | 254 kts | 323° |
| 2026-04-25 00:13 | 34.66882 | -118.56907 | 19917 ft | 250 kts | 320° |
| 2026-04-25 00:13 | 34.68219 | -118.58176 | 19916 ft | 238 kts | 305° |
| 2026-04-25 00:13 | 34.69177 | -118.59769 | 19916 ft | 231 kts | 293° |
| 2026-04-25 00:13 | 34.69939 | -118.61485 | 19909 ft | 229 kts | 291° |
| 2026-04-25 00:14 | 34.70669 | -118.63208 | 19908 ft | 229 kts | 291° |
| 2026-04-25 00:14 | 34.71392 | -118.64936 | 19905 ft | 229 kts | 291° |
| 2026-04-25 00:14 | 34.72113 | -118.66657 | 19908 ft | 229 kts | 291° |
| 2026-04-25 00:14 | 34.72838 | -118.68379 | 19909 ft | 229 kts | 291° |
| 2026-04-25 00:15 | 34.73566 | -118.70098 | 19910 ft | 229 kts | 291° |
| 2026-04-25 00:15 | 34.74296 | -118.71821 | 19912 ft | 229 kts | 291° |
| 2026-04-25 00:15 | 34.75025 | -118.73538 | 19910 ft | 229 kts | 291° |
| 2026-04-25 00:15 | 34.75755 | -118.75254 | 19910 ft | 228 kts | 291° |
| 2026-04-25 00:16 | 34.76484 | -118.76972 | 19912 ft | 229 kts | 291° |
| 2026-04-25 00:16 | 34.77207 | -118.78672 | 19910 ft | 229 kts | 291° |
| 2026-04-25 00:16 | 34.77936 | -118.80390 | 19910 ft | 229 kts | 291° |
| 2026-04-25 00:16 | 34.78667 | -118.82112 | 19910 ft | 229 kts | 291° |
| 2026-04-25 00:17 | 34.79397 | -118.83834 | 19909 ft | 229 kts | 291° |
| 2026-04-25 00:17 | 34.80160 | -118.85548 | 19911 ft | 231 kts | 295° |
| 2026-04-25 00:17 | 34.81145 | -118.87117 | 19904 ft | 237 kts | 305° |
| 2026-04-25 00:17 | 34.82300 | -118.88545 | 19907 ft | 236 kts | 305° |
| 2026-04-25 00:18 | 34.83418 | -118.90002 | 19893 ft | 234 kts | 304° |
| 2026-04-25 00:18 | 34.84517 | -118.91465 | 19889 ft | 234 kts | 303° |
| 2026-04-25 00:18 | 34.85614 | -118.92927 | 19869 ft | 233 kts | 304° |
| 2026-04-25 00:18 | 34.86709 | -118.94380 | 19892 ft | 233 kts | 304° |
| 2026-04-25 00:19 | 34.87806 | -118.95832 | 19865 ft | 232 kts | 304° |
| 2026-04-25 00:19 | 34.88904 | -118.97273 | 19875 ft | 232 kts | 304° |
| 2026-04-25 00:19 | 34.90003 | -118.98717 | 19890 ft | 233 kts | 304° |
| 2026-04-25 00:19 | 34.91109 | -119.00170 | 19898 ft | 235 kts | 304° |
| 2026-04-25 00:20 | 34.92222 | -119.01632 | 19907 ft | 236 kts | 305° |
| 2026-04-25 00:20 | 34.93340 | -119.03098 | 19900 ft | 236 kts | 305° |
| 2026-04-25 00:20 | 34.94455 | -119.04558 | 19905 ft | 236 kts | 304° |
| 2026-04-25 00:20 | 34.95556 | -119.06000 | 19905 ft | 235 kts | 304° |
| 2026-04-25 00:21 | 34.96670 | -119.07462 | 19905 ft | 235 kts | 304° |
| 2026-04-25 00:21 | 34.97788 | -119.08929 | 19909 ft | 236 kts | 304° |
| 2026-04-25 00:21 | 34.98910 | -119.10404 | 19913 ft | 238 kts | 304° |
| 2026-04-25 00:21 | 35.00035 | -119.11883 | 19889 ft | 237 kts | 304° |
| 2026-04-25 00:22 | 35.01156 | -119.13353 | 19895 ft | 237 kts | 304° |
| 2026-04-25 00:22 | 35.02276 | -119.14825 | 19900 ft | 237 kts | 304° |
| 2026-04-25 00:22 | 35.03396 | -119.16298 | 19891 ft | 237 kts | 304° |
| 2026-04-25 00:22 | 35.04517 | -119.17773 | 19891 ft | 237 kts | 304° |
| 2026-04-25 00:23 | 35.05635 | -119.19245 | 19889 ft | 237 kts | 304° |
| 2026-04-25 00:23 | 35.06759 | -119.20724 | 19889 ft | 237 kts | 304° |
| 2026-04-25 00:23 | 35.07880 | -119.22201 | 19889 ft | 237 kts | 304° |
| 2026-04-25 00:23 | 35.09000 | -119.23678 | 19889 ft | 237 kts | 304° |
| 2026-04-25 00:24 | 35.10123 | -119.25158 | 19883 ft | 237 kts | 304° |
| 2026-04-25 00:24 | 35.11243 | -119.26636 | 19883 ft | 237 kts | 304° |
| 2026-04-25 00:24 | 35.12363 | -119.28112 | 19884 ft | 237 kts | 304° |
| 2026-04-25 00:24 | 35.13481 | -119.29590 | 19900 ft | 237 kts | 305° |
| 2026-04-25 00:25 | 35.14603 | -119.31070 | 19889 ft | 237 kts | 305° |
| 2026-04-25 00:25 | 35.15723 | -119.32550 | 19889 ft | 237 kts | 305° |
| 2026-04-25 00:25 | 35.16843 | -119.34030 | 19882 ft | 237 kts | 305° |
| 2026-04-25 00:25 | 35.17963 | -119.35510 | 19882 ft | 237 kts | 305° |
| 2026-04-25 00:26 | 35.19084 | -119.36993 | 19886 ft | 237 kts | 305° |
| 2026-04-25 00:26 | 35.20205 | -119.38476 | 19885 ft | 237 kts | 305° |
| 2026-04-25 00:26 | 35.21322 | -119.39956 | 19885 ft | 237 kts | 305° |
| 2026-04-25 00:26 | 35.22442 | -119.41439 | 19880 ft | 237 kts | 305° |
| 2026-04-25 00:27 | 35.23561 | -119.42923 | 19877 ft | 237 kts | 305° |
| 2026-04-25 00:27 | 35.24678 | -119.44404 | 19880 ft | 237 kts | 305° |
| 2026-04-25 00:27 | 35.25797 | -119.45889 | 19878 ft | 237 kts | 305° |
| 2026-04-25 00:27 | 35.26917 | -119.47376 | 19880 ft | 237 kts | 305° |
| 2026-04-25 00:28 | 35.28040 | -119.48867 | 19887 ft | 237 kts | 305° |
| 2026-04-25 00:28 | 35.29159 | -119.50353 | 19884 ft | 237 kts | 305° |
| 2026-04-25 00:28 | 35.30278 | -119.51840 | 19892 ft | 238 kts | 306° |
| 2026-04-25 00:28 | 35.31401 | -119.53335 | 19889 ft | 239 kts | 306° |
| 2026-04-25 00:29 | 35.32529 | -119.54835 | 19888 ft | 240 kts | 306° |
| 2026-04-25 00:29 | 35.33646 | -119.56321 | 19885 ft | 240 kts | 306° |
| 2026-04-25 00:29 | 35.34777 | -119.57826 | 19884 ft | 240 kts | 306° |
| 2026-04-25 00:29 | 35.35905 | -119.59327 | 19881 ft | 240 kts | 306° |
| 2026-04-25 00:30 | 35.37034 | -119.60831 | 19893 ft | 239 kts | 306° |
| 2026-04-25 00:30 | 35.38160 | -119.62332 | 19894 ft | 239 kts | 306° |
| 2026-04-25 00:30 | 35.39285 | -119.63832 | 19894 ft | 239 kts | 306° |
| 2026-04-25 00:30 | 35.40411 | -119.65335 | 19894 ft | 239 kts | 306° |
| 2026-04-25 00:31 | 35.41535 | -119.66835 | 19892 ft | 239 kts | 306° |
| 2026-04-25 00:31 | 35.42663 | -119.68341 | 19886 ft | 239 kts | 306° |
| 2026-04-25 00:31 | 35.43787 | -119.69843 | 19886 ft | 239 kts | 306° |
| 2026-04-25 00:31 | 35.44910 | -119.71345 | 19900 ft | 239 kts | 306° |
| 2026-04-25 00:32 | 35.46036 | -119.72851 | 19907 ft | 240 kts | 307° |
| 2026-04-25 00:32 | 35.47167 | -119.74366 | 19902 ft | 241 kts | 307° |
| 2026-04-25 00:32 | 35.48304 | -119.75888 | 19900 ft | 242 kts | 307° |
| 2026-04-25 00:32 | 35.49059 | -119.76899 | 19893 ft | 243 kts | 307° |
| 2026-04-25 00:33 | 35.50590 | -119.78949 | 19893 ft | 244 kts | 307° |
| 2026-04-25 00:33 | 35.51737 | -119.80485 | 19892 ft | 244 kts | 307° |
| 2026-04-25 00:33 | 35.52882 | -119.82020 | 19892 ft | 244 kts | 307° |
| 2026-04-25 00:33 | 35.54029 | -119.83558 | 19901 ft | 244 kts | 306° |
| 2026-04-25 00:34 | 35.55172 | -119.85091 | 19906 ft | 243 kts | 306° |
| 2026-04-25 00:34 | 35.56297 | -119.86601 | 19900 ft | 243 kts | 306° |
| 2026-04-25 00:34 | 35.57437 | -119.88132 | 19900 ft | 242 kts | 306° |
| 2026-04-25 00:34 | 35.58572 | -119.89658 | 19900 ft | 242 kts | 306° |
| 2026-04-25 00:35 | 35.59709 | -119.91187 | 19901 ft | 242 kts | 306° |
| 2026-04-25 00:35 | 35.60843 | -119.92714 | 19900 ft | 242 kts | 306° |
| 2026-04-25 00:35 | 35.61979 | -119.94243 | 19916 ft | 242 kts | 307° |
| 2026-04-25 00:35 | 35.63121 | -119.95783 | 19912 ft | 244 kts | 307° |
| 2026-04-25 00:36 | 35.64280 | -119.97318 | 19907 ft | 246 kts | 309° |
| 2026-04-25 00:36 | 35.65532 | -119.98767 | 19907 ft | 248 kts | 313° |
| 2026-04-25 00:36 | 35.66408 | -119.99676 | 19907 ft | 249 kts | 314° |
| 2026-04-25 00:36 | 35.68177 | -120.01514 | 19905 ft | 249 kts | 314° |
| 2026-04-25 00:37 | 35.69056 | -120.02432 | 19904 ft | 249 kts | 314° |
| 2026-04-25 00:37 | 35.70378 | -120.03814 | 19903 ft | 250 kts | 314° |
| 2026-04-25 00:37 | 35.71703 | -120.05200 | 19902 ft | 250 kts | 314° |
| 2026-04-25 00:37 | 35.73459 | -120.07035 | 19912 ft | 250 kts | 314° |
| 2026-04-25 00:38 | 35.74783 | -120.08419 | 19914 ft | 250 kts | 314° |
| 2026-04-25 00:38 | 35.75678 | -120.09354 | 19907 ft | 249 kts | 314° |
| 2026-04-25 00:38 | 35.77001 | -120.10737 | 19908 ft | 249 kts | 314° |
| 2026-04-25 00:38 | 35.78323 | -120.12118 | 19902 ft | 249 kts | 314° |
| 2026-04-25 00:39 | 35.79644 | -120.13501 | 19913 ft | 250 kts | 314° |
| 2026-04-25 00:39 | 35.80971 | -120.14889 | 19912 ft | 251 kts | 314° |
| 2026-04-25 00:39 | 35.82282 | -120.16262 | 19904 ft | 251 kts | 314° |
| 2026-04-25 00:39 | 35.83613 | -120.17654 | 19916 ft | 251 kts | 314° |
| 2026-04-25 00:40 | 35.84944 | -120.19048 | 19918 ft | 251 kts | 314° |
| 2026-04-25 00:40 | 35.86277 | -120.20445 | 19921 ft | 252 kts | 314° |
| 2026-04-25 00:40 | 35.87612 | -120.21846 | 19917 ft | 252 kts | 314° |
| 2026-04-25 00:40 | 35.88950 | -120.23249 | 19913 ft | 252 kts | 314° |
| 2026-04-25 00:41 | 35.90285 | -120.24650 | 19905 ft | 252 kts | 314° |
| 2026-04-25 00:41 | 35.91619 | -120.26050 | 19906 ft | 252 kts | 314° |
| 2026-04-25 00:41 | 35.92955 | -120.27453 | 19910 ft | 252 kts | 314° |
| 2026-04-25 00:41 | 35.94290 | -120.28857 | 19922 ft | 252 kts | 314° |
| 2026-04-25 00:42 | 35.95626 | -120.30262 | 19928 ft | 252 kts | 314° |
| 2026-04-25 00:42 | 35.96963 | -120.31669 | 19925 ft | 253 kts | 314° |
| 2026-04-25 00:42 | 35.98306 | -120.33083 | 19922 ft | 254 kts | 314° |
| 2026-04-25 00:42 | 35.99653 | -120.34502 | 19920 ft | 254 kts | 314° |
| 2026-04-25 00:43 | 36.01004 | -120.35926 | 19924 ft | 255 kts | 314° |
| 2026-04-25 00:43 | 36.02354 | -120.37349 | 19916 ft | 255 kts | 314° |
| 2026-04-25 00:43 | 36.03684 | -120.38750 | 19910 ft | 254 kts | 314° |
| 2026-04-25 00:43 | 36.05026 | -120.40164 | 19913 ft | 253 kts | 314° |
| 2026-04-25 00:44 | 36.06366 | -120.41578 | 19917 ft | 253 kts | 314° |
| 2026-04-25 00:44 | 36.07704 | -120.42991 | 19919 ft | 253 kts | 314° |
| 2026-04-25 00:44 | 36.09043 | -120.44406 | 19910 ft | 253 kts | 314° |
| 2026-04-25 00:44 | 36.10379 | -120.45817 | 19912 ft | 252 kts | 314° |
| 2026-04-25 00:45 | 36.11714 | -120.47228 | 19913 ft | 252 kts | 314° |
| 2026-04-25 00:45 | 36.13047 | -120.48637 | 19910 ft | 252 kts | 314° |
| 2026-04-25 00:45 | 36.14381 | -120.50047 | 19905 ft | 252 kts | 315° |
| 2026-04-25 00:45 | 36.15716 | -120.51460 | 19919 ft | 253 kts | 314° |
| 2026-04-25 00:46 | 36.17057 | -120.52881 | 19918 ft | 254 kts | 314° |
| 2026-04-25 00:46 | 36.18399 | -120.54304 | 19922 ft | 255 kts | 314° |
| 2026-04-25 00:46 | 36.21091 | -120.57162 | 19917 ft | 255 kts | 314° |
| 2026-04-25 00:47 | 36.22436 | -120.58591 | 19914 ft | 255 kts | 314° |
| 2026-04-25 00:47 | 36.23780 | -120.60019 | 19914 ft | 254 kts | 314° |
| 2026-04-25 00:47 | 36.25122 | -120.61445 | 19917 ft | 254 kts | 314° |
| 2026-04-25 00:47 | 36.26465 | -120.62873 | 19928 ft | 254 kts | 314° |
| 2026-04-25 00:48 | 36.27809 | -120.64303 | 19925 ft | 254 kts | 314° |
| 2026-04-25 00:48 | 36.29152 | -120.65732 | 19930 ft | 255 kts | 315° |
| 2026-04-25 00:48 | 36.30501 | -120.67169 | 19931 ft | 256 kts | 315° |
| 2026-04-25 00:48 | 36.31841 | -120.68597 | 19928 ft | 257 kts | 315° |
| 2026-04-25 00:49 | 36.33215 | -120.70061 | 19928 ft | 257 kts | 315° |
| 2026-04-25 00:49 | 36.34576 | -120.71511 | 19926 ft | 258 kts | 315° |
| 2026-04-25 00:49 | 36.35936 | -120.72961 | 19924 ft | 258 kts | 315° |
| 2026-04-25 00:49 | 36.37296 | -120.74413 | 19934 ft | 258 kts | 315° |
| 2026-04-25 00:50 | 36.38636 | -120.75843 | 19935 ft | 258 kts | 314° |
| 2026-04-25 00:50 | 36.39994 | -120.77293 | 19934 ft | 257 kts | 314° |
| 2026-04-25 00:50 | 36.41351 | -120.78742 | 19936 ft | 257 kts | 314° |
| 2026-04-25 00:50 | 36.42707 | -120.80192 | 19937 ft | 257 kts | 314° |
| 2026-04-25 00:51 | 36.44064 | -120.81643 | 19934 ft | 257 kts | 315° |
| 2026-04-25 00:51 | 36.45421 | -120.83096 | 19936 ft | 257 kts | 315° |
| 2026-04-25 00:51 | 36.46777 | -120.84548 | 19937 ft | 258 kts | 314° |
| 2026-04-25 00:51 | 36.48132 | -120.85999 | 19939 ft | 257 kts | 314° |
| 2026-04-25 00:52 | 36.49489 | -120.87453 | 19938 ft | 257 kts | 314° |
| 2026-04-25 00:52 | 36.50844 | -120.88906 | 19937 ft | 257 kts | 314° |
| 2026-04-25 00:52 | 36.52194 | -120.90354 | 19933 ft | 256 kts | 314° |
| 2026-04-25 00:52 | 36.53544 | -120.91801 | 19936 ft | 256 kts | 314° |
| 2026-04-25 00:53 | 36.54891 | -120.93248 | 19939 ft | 256 kts | 314° |
| 2026-04-25 00:53 | 36.56237 | -120.94694 | 19938 ft | 256 kts | 314° |
| 2026-04-25 00:53 | 36.57587 | -120.96146 | 19941 ft | 256 kts | 314° |
| 2026-04-25 00:53 | 36.58935 | -120.97595 | 19949 ft | 256 kts | 314° |
| 2026-04-25 00:54 | 36.60286 | -120.99048 | 19948 ft | 256 kts | 314° |
| 2026-04-25 00:54 | 36.61636 | -121.00502 | 19953 ft | 257 kts | 315° |
| 2026-04-25 00:54 | 36.62996 | -121.01967 | 19951 ft | 258 kts | 315° |
| 2026-04-25 00:54 | 36.64356 | -121.03433 | 19950 ft | 259 kts | 315° |
| 2026-04-25 00:55 | 36.65719 | -121.04902 | 19951 ft | 259 kts | 315° |
| 2026-04-25 00:55 | 36.67082 | -121.06372 | 19954 ft | 259 kts | 315° |
| 2026-04-25 00:55 | 36.68448 | -121.07845 | 19962 ft | 260 kts | 315° |
| 2026-04-25 00:55 | 36.69813 | -121.09319 | 19964 ft | 260 kts | 315° |
| 2026-04-25 00:56 | 36.71181 | -121.10796 | 19964 ft | 260 kts | 315° |
| 2026-04-25 00:56 | 36.72551 | -121.12276 | 19965 ft | 260 kts | 315° |
| 2026-04-25 00:56 | 36.73901 | -121.13735 | 19968 ft | 260 kts | 315° |
| 2026-04-25 00:56 | 36.75268 | -121.15214 | 19969 ft | 260 kts | 315° |
| 2026-04-25 00:57 | 36.76635 | -121.16693 | 19971 ft | 260 kts | 315° |
| 2026-04-25 00:57 | 36.78005 | -121.18177 | 19975 ft | 261 kts | 315° |
| 2026-04-25 00:57 | 36.79379 | -121.19665 | 19979 ft | 262 kts | 315° |
| 2026-04-25 00:57 | 36.80755 | -121.21157 | 19980 ft | 262 kts | 315° |
| 2026-04-25 00:58 | 36.82135 | -121.22654 | 19980 ft | 263 kts | 315° |
| 2026-04-25 00:58 | 36.83517 | -121.24153 | 19979 ft | 263 kts | 315° |
| 2026-04-25 00:58 | 36.84896 | -121.25649 | 19975 ft | 262 kts | 315° |
| 2026-04-25 00:58 | 36.86272 | -121.27142 | 19979 ft | 262 kts | 315° |
| 2026-04-25 00:59 | 36.87648 | -121.28637 | 19980 ft | 262 kts | 315° |
| 2026-04-25 00:59 | 36.89022 | -121.30130 | 19979 ft | 262 kts | 315° |
| 2026-04-25 00:59 | 36.90394 | -121.31622 | 19981 ft | 262 kts | 315° |
| 2026-04-25 00:59 | 36.91769 | -121.33118 | 19981 ft | 262 kts | 315° |
| 2026-04-25 01:00 | 36.93140 | -121.34612 | 19986 ft | 262 kts | 315° |
| 2026-04-25 01:00 | 36.94518 | -121.36113 | 19982 ft | 263 kts | 316° |
| 2026-04-25 01:00 | 36.95899 | -121.37617 | 19982 ft | 264 kts | 316° |
| 2026-04-25 01:00 | 36.97285 | -121.39128 | 19979 ft | 264 kts | 316° |
| 2026-04-25 01:01 | 36.98672 | -121.40640 | 19982 ft | 265 kts | 316° |
| 2026-04-25 01:01 | 37.00061 | -121.42156 | 19981 ft | 265 kts | 316° |
| 2026-04-25 01:01 | 37.01448 | -121.43670 | 19988 ft | 265 kts | 316° |
| 2026-04-25 01:01 | 37.02820 | -121.45169 | 19988 ft | 265 kts | 316° |
| 2026-04-25 01:02 | 37.04216 | -121.46695 | 19986 ft | 265 kts | 316° |
| 2026-04-25 01:02 | 37.05608 | -121.48216 | 19980 ft | 265 kts | 316° |
| 2026-04-25 01:02 | 37.06998 | -121.49737 | 19979 ft | 265 kts | 316° |
| 2026-04-25 01:02 | 37.08388 | -121.51259 | 19979 ft | 265 kts | 316° |
| 2026-04-25 01:03 | 37.09777 | -121.52780 | 19984 ft | 266 kts | 316° |
| 2026-04-25 01:03 | 37.11170 | -121.54307 | 19983 ft | 266 kts | 316° |
| 2026-04-25 01:03 | 37.12564 | -121.55836 | 19973 ft | 266 kts | 316° |
| 2026-04-25 01:03 | 37.13957 | -121.57363 | 19970 ft | 265 kts | 316° |
| 2026-04-25 01:04 | 37.15347 | -121.58888 | 19972 ft | 265 kts | 316° |
| 2026-04-25 01:04 | 37.16736 | -121.60413 | 19973 ft | 265 kts | 316° |
| 2026-04-25 01:04 | 37.18105 | -121.61917 | 19967 ft | 265 kts | 316° |
| 2026-04-25 01:04 | 37.19494 | -121.63444 | 19972 ft | 265 kts | 316° |
| 2026-04-25 01:05 | 37.20883 | -121.64970 | 19969 ft | 265 kts | 316° |
| 2026-04-25 01:05 | 37.22270 | -121.66496 | 19965 ft | 265 kts | 316° |
| 2026-04-25 01:05 | 37.23651 | -121.68016 | 19965 ft | 264 kts | 316° |
| 2026-04-25 01:05 | 37.25030 | -121.69535 | 19963 ft | 264 kts | 317° |
| 2026-04-25 01:06 | 37.26408 | -121.71053 | 19957 ft | 263 kts | 317° |
| 2026-04-25 01:06 | 37.27783 | -121.72569 | 19964 ft | 263 kts | 317° |
| 2026-04-25 01:06 | 37.29161 | -121.74089 | 19965 ft | 264 kts | 317° |
| 2026-04-25 01:06 | 37.30539 | -121.75609 | 19962 ft | 264 kts | 317° |
| 2026-04-25 01:07 | 37.31917 | -121.77131 | 19962 ft | 263 kts | 317° |
| 2026-04-25 01:07 | 37.33294 | -121.78652 | 19962 ft | 264 kts | 317° |
| 2026-04-25 01:07 | 37.34679 | -121.80182 | 19958 ft | 264 kts | 317° |
| 2026-04-25 01:07 | 37.36055 | -121.81704 | 19961 ft | 264 kts | 316° |
| 2026-04-25 01:08 | 37.37431 | -121.83226 | 19960 ft | 264 kts | 316° |
| 2026-04-25 01:08 | 37.38809 | -121.84753 | 19961 ft | 264 kts | 316° |
| 2026-04-25 01:08 | 37.40170 | -121.86260 | 19963 ft | 264 kts | 317° |
| 2026-04-25 01:08 | 37.41548 | -121.87788 | 19962 ft | 264 kts | 317° |
| 2026-04-25 01:09 | 37.42922 | -121.89311 | 19961 ft | 264 kts | 317° |
| 2026-04-25 01:09 | 37.44301 | -121.90841 | 19960 ft | 264 kts | 317° |
| 2026-04-25 01:09 | 37.45683 | -121.92373 | 19962 ft | 264 kts | 317° |
| 2026-04-25 01:09 | 37.47059 | -121.93901 | 19961 ft | 264 kts | 317° |
| 2026-04-25 01:10 | 37.48438 | -121.95434 | 19962 ft | 264 kts | 317° |
| 2026-04-25 01:10 | 37.49818 | -121.96967 | 19962 ft | 264 kts | 317° |
| 2026-04-25 01:10 | 37.51198 | -121.98502 | 19963 ft | 264 kts | 317° |
| 2026-04-25 01:10 | 37.52573 | -122.00032 | 19972 ft | 264 kts | 317° |
| 2026-04-25 01:11 | 37.53932 | -122.01546 | 19971 ft | 264 kts | 317° |
| 2026-04-25 01:11 | 37.55328 | -122.03100 | 19973 ft | 264 kts | 317° |
| 2026-04-25 01:11 | 37.56705 | -122.04635 | 19980 ft | 265 kts | 317° |
| 2026-04-25 01:11 | 37.58085 | -122.06174 | 19980 ft | 266 kts | 317° |
| 2026-04-25 01:12 | 37.59471 | -122.07721 | 19981 ft | 266 kts | 317° |
| 2026-04-25 01:12 | 37.60837 | -122.09246 | 19981 ft | 266 kts | 317° |
| 2026-04-25 01:12 | 37.62223 | -122.10794 | 19981 ft | 266 kts | 317° |
| 2026-04-25 01:12 | 37.63632 | -122.12368 | 19981 ft | 267 kts | 317° |
| 2026-04-25 01:13 | 37.65005 | -122.13902 | 19982 ft | 267 kts | 317° |
| 2026-04-25 01:13 | 37.66393 | -122.15454 | 19981 ft | 267 kts | 317° |
| 2026-04-25 01:13 | 37.67783 | -122.17010 | 19981 ft | 267 kts | 317° |
| 2026-04-25 01:13 | 37.69173 | -122.18566 | 19980 ft | 267 kts | 317° |
| 2026-04-25 01:14 | 37.70561 | -122.20121 | 19978 ft | 267 kts | 317° |
| 2026-04-25 01:14 | 37.71952 | -122.21681 | 19980 ft | 267 kts | 317° |
| 2026-04-25 01:14 | 37.73341 | -122.23254 | 19980 ft | 268 kts | 316° |
| 2026-04-25 01:14 | 37.74674 | -122.24901 | 19979 ft | 268 kts | 314° |
| 2026-04-25 01:15 | 37.75990 | -122.26581 | 19980 ft | 268 kts | 314° |
| 2026-04-25 01:15 | 37.77303 | -122.28254 | 19981 ft | 268 kts | 314° |
| 2026-04-25 01:15 | 37.78624 | -122.29924 | 19980 ft | 269 kts | 314° |
| 2026-04-25 01:15 | 37.79947 | -122.31590 | 19980 ft | 269 kts | 314° |
| 2026-04-25 01:16 | 37.81256 | -122.33234 | 19979 ft | 268 kts | 314° |
| 2026-04-25 01:16 | 37.82582 | -122.34899 | 19977 ft | 268 kts | 314° |
| 2026-04-25 01:16 | 37.83910 | -122.36566 | 19976 ft | 269 kts | 314° |
| 2026-04-25 01:16 | 37.85239 | -122.38236 | 19973 ft | 269 kts | 314° |
| 2026-04-25 01:17 | 37.86569 | -122.39906 | 19970 ft | 269 kts | 314° |
| 2026-04-25 01:17 | 37.87449 | -122.41013 | 19972 ft | 269 kts | 314° |
| 2026-04-25 01:17 | 37.89228 | -122.43251 | 19969 ft | 270 kts | 314° |
| 2026-04-25 01:17 | 37.90559 | -122.44926 | 19962 ft | 270 kts | 314° |
| 2026-04-25 01:18 | 37.91890 | -122.46601 | 19964 ft | 269 kts | 314° |
| 2026-04-25 01:18 | 37.93218 | -122.48275 | 19962 ft | 270 kts | 314° |
| 2026-04-25 01:18 | 37.94550 | -122.49953 | 19962 ft | 270 kts | 314° |
| 2026-04-25 01:18 | 37.95986 | -122.51483 | 19962 ft | 270 kts | 325° |
| 2026-04-25 01:19 | 37.97649 | -122.52530 | 19958 ft | 271 kts | 338° |
| 2026-04-25 01:19 | 37.99401 | -122.53405 | 19960 ft | 271 kts | 336° |
| 2026-04-25 01:19 | 38.01136 | -122.54333 | 19961 ft | 271 kts | 336° |
| 2026-04-25 01:19 | 38.02875 | -122.55270 | 19961 ft | 271 kts | 336° |
| 2026-04-25 01:20 | 38.03185 | -122.55436 | 19961 ft | 271 kts | 336° |
| 2026-04-25 01:30 | 38.04210 | -122.55983 | 19961 ft | 271 kts | 336° |
| 2026-04-25 01:30 | 38.05951 | -122.56906 | 19963 ft | 271 kts | 336° |
| 2026-04-25 01:31 | 38.07695 | -122.57827 | 19965 ft | 271 kts | 336° |
| 2026-04-25 01:31 | 38.09418 | -122.58793 | 19962 ft | 270 kts | 330° |
| 2026-04-25 01:31 | 38.10925 | -122.60209 | 19963 ft | 270 kts | 315° |
| 2026-04-25 01:31 | 38.12114 | -122.62032 | 19960 ft | 268 kts | 306° |
| 2026-04-25 01:32 | 38.13213 | -122.63954 | 19861 ft | 268 kts | 305° |
| 2026-04-25 01:32 | 38.14303 | -122.65872 | 19739 ft | 267 kts | 305° |
| 2026-04-25 01:32 | 38.15389 | -122.67780 | 19617 ft | 266 kts | 305° |
| 2026-04-25 01:32 | 38.16479 | -122.69690 | 19341 ft | 270 kts | 306° |
| 2026-04-25 01:33 | 38.17586 | -122.71627 | 18984 ft | 273 kts | 306° |
| 2026-04-25 01:33 | 38.18692 | -122.73562 | 18637 ft | 275 kts | 306° |
| 2026-04-25 01:33 | 38.19833 | -122.75560 | 18282 ft | 277 kts | 307° |
| 2026-04-25 01:33 | 38.20966 | -122.77543 | 17883 ft | 278 kts | 307° |
| 2026-04-25 01:34 | 38.22102 | -122.79535 | 17481 ft | 278 kts | 307° |
| 2026-04-25 01:34 | 38.23237 | -122.81525 | 17080 ft | 278 kts | 307° |
| 2026-04-25 01:34 | 38.24370 | -122.83514 | 16691 ft | 277 kts | 307° |
| 2026-04-25 01:34 | 38.25606 | -122.85328 | 16314 ft | 275 kts | 319° |
| 2026-04-25 01:35 | 38.27175 | -122.86684 | 15928 ft | 272 kts | 334° |
| 2026-04-25 01:35 | 38.28952 | -122.87443 | 15556 ft | 269 kts | 350° |
| 2026-04-25 01:35 | 38.30801 | -122.87649 | 15189 ft | 266 kts | 357° |
| 2026-04-25 01:35 | 38.32643 | -122.87873 | 14821 ft | 266 kts | 353° |
| 2026-04-25 01:36 | 38.34465 | -122.88301 | 14459 ft | 265 kts | 348° |
| 2026-04-25 01:36 | 38.36257 | -122.88871 | 14102 ft | 265 kts | 346° |
| 2026-04-25 01:36 | 38.38028 | -122.89516 | 13746 ft | 264 kts | 344° |
| 2026-04-25 01:36 | 38.39782 | -122.90194 | 13352 ft | 263 kts | 343° |
| 2026-04-25 01:37 | 38.41519 | -122.90884 | 12959 ft | 261 kts | 343° |
| 2026-04-25 01:37 | 38.43252 | -122.91579 | 12571 ft | 261 kts | 343° |
| 2026-04-25 01:37 | 38.44978 | -122.92275 | 12187 ft | 260 kts | 343° |
| 2026-04-25 01:37 | 38.46699 | -122.92970 | 11807 ft | 259 kts | 343° |
| 2026-04-25 01:38 | 38.48421 | -122.93666 | 11428 ft | 260 kts | 344° |
| 2026-04-25 01:38 | 38.50144 | -122.94362 | 11058 ft | 260 kts | 343° |
| 2026-04-25 01:38 | 38.51866 | -122.95058 | 10693 ft | 260 kts | 344° |
| 2026-04-25 01:38 | 38.53591 | -122.95756 | 10327 ft | 259 kts | 344° |
| 2026-04-25 01:39 | 38.55311 | -122.96452 | 9966 ft | 259 kts | 344° |
| 2026-04-25 01:39 | 38.57035 | -122.97150 | 9582 ft | 259 kts | 344° |
| 2026-04-25 01:39 | 38.58732 | -122.97838 | 9198 ft | 259 kts | 344° |
| 2026-04-25 01:39 | 38.60442 | -122.98531 | 8842 ft | 256 kts | 344° |
| 2026-04-25 01:40 | 38.62128 | -122.99215 | 8511 ft | 252 kts | 344° |
| 2026-04-25 01:40 | 38.63781 | -122.99885 | 8179 ft | 246 kts | 345° |
| 2026-04-25 01:40 | 38.65335 | -123.00512 | 7851 ft | 223 kts | 344° |
| 2026-04-25 01:40 | 38.66756 | -123.01084 | 7528 ft | 206 kts | 345° |
| 2026-04-25 01:41 | 38.68071 | -123.01614 | 7177 ft | 191 kts | 345° |
| 2026-04-25 01:41 | 38.69294 | -123.02107 | 6868 ft | 178 kts | 344° |
| 2026-04-25 01:41 | 38.70465 | -123.02582 | 6581 ft | 176 kts | 345° |
| 2026-04-25 01:41 | 38.71641 | -123.03061 | 6359 ft | 181 kts | 344° |
| 2026-04-25 01:42 | 38.72846 | -123.03553 | 6217 ft | 182 kts | 344° |
| 2026-04-25 01:42 | 38.74060 | -123.04050 | 6060 ft | 184 kts | 344° |
| 2026-04-25 01:42 | 38.75281 | -123.04549 | 5902 ft | 185 kts | 344° |
| 2026-04-25 01:42 | 38.76535 | -123.04819 | 5748 ft | 183 kts | 2° |
| 2026-04-25 01:43 | 38.77762 | -123.04449 | 5588 ft | 182 kts | 25° |
| 2026-04-25 01:43 | 38.78773 | -123.03484 | 5427 ft | 183 kts | 48° |
| 2026-04-25 01:43 | 38.79253 | -123.02013 | 5292 ft | 184 kts | 89° |
| 2026-04-25 01:43 | 38.78807 | -123.00502 | 5177 ft | 183 kts | 124° |
| 2026-04-25 01:44 | 38.78056 | -122.99193 | 5080 ft | 182 kts | 124° |
| 2026-04-25 01:44 | 38.77371 | -122.97848 | 5007 ft | 178 kts | 119° |
| 2026-04-25 01:44 | 38.76623 | -122.96629 | 4947 ft | 173 kts | 141° |
| 2026-04-25 01:44 | 38.75529 | -122.96078 | 4875 ft | 169 kts | 176° |
| 2026-04-25 01:45 | 38.74381 | -122.95944 | 4763 ft | 165 kts | 168° |
| 2026-04-25 01:45 | 38.73261 | -122.95628 | 4635 ft | 164 kts | 168° |
| 2026-04-25 01:45 | 38.72125 | -122.95376 | 4507 ft | 167 kts | 172° |
| 2026-04-25 01:45 | 38.70980 | -122.95186 | 4384 ft | 169 kts | 173° |
| 2026-04-25 01:46 | 38.69812 | -122.94992 | 4283 ft | 169 kts | 172° |
| 2026-04-25 01:46 | 38.68631 | -122.94775 | 4081 ft | 174 kts | 171° |
| 2026-04-25 01:46 | 38.67419 | -122.94542 | 3856 ft | 175 kts | 172° |
| 2026-04-25 01:46 | 38.66245 | -122.94318 | 3656 ft | 166 kts | 172° |
| 2026-04-25 01:47 | 38.65133 | -122.94065 | 3458 ft | 160 kts | 161° |
| 2026-04-25 01:47 | 38.64188 | -122.93350 | 3255 ft | 158 kts | 140° |
| 2026-04-25 01:47 | 38.63325 | -122.92470 | 3026 ft | 159 kts | 141° |
| 2026-04-25 01:47 | 38.62457 | -122.91618 | 2809 ft | 156 kts | 142° |
| 2026-04-25 01:48 | 38.61605 | -122.90785 | 2609 ft | 154 kts | 141° |
| 2026-04-25 01:48 | 38.60759 | -122.89950 | 2387 ft | 150 kts | 141° |
| 2026-04-25 01:48 | 38.59962 | -122.89159 | 2173 ft | 140 kts | 141° |
| 2026-04-25 01:48 | 38.59213 | -122.88414 | 2000 ft | 132 kts | 143° |
| 2026-04-25 01:49 | 38.58524 | -122.87731 | 1828 ft | 118 kts | 143° |
| 2026-04-25 01:49 | 38.57941 | -122.87154 | 1679 ft | 94 kts | 144° |
| 2026-04-25 01:49 | 38.57450 | -122.86670 | 1546 ft | 86 kts | 143° |
| 2026-04-25 01:49 | 38.56982 | -122.86208 | 1422 ft | 85 kts | 144° |
| 2026-04-25 01:50 | 38.56523 | -122.85755 | 1322 ft | 84 kts | 144° |
| 2026-04-25 01:50 | 38.56056 | -122.85301 | 1216 ft | 83 kts | 144° |
| 2026-04-25 01:50 | 38.55626 | -122.84850 | 1103 ft | 80 kts | 144° |
| 2026-04-25 01:50 | 38.55186 | -122.84422 | 989 ft | 80 kts | 148° |
| 2026-04-25 01:51 | 38.54721 | -122.83999 | 855 ft | 84 kts | 145° |
| 2026-04-25 01:51 | 38.54267 | -122.83549 | 739 ft | 82 kts | 141° |
| 2026-04-25 01:51 | 38.53834 | -122.83067 | 664 ft | 83 kts | 141° |
| 2026-04-25 01:51 | 38.53385 | -122.82601 | 569 ft | 83 kts | 142° |
| 2026-04-25 01:52 | 38.52929 | -122.82157 | 456 ft | 82 kts | 143° |
| 2026-04-25 01:52 | 38.52443 | -122.81766 | 334 ft | 82 kts | 151° |
| 2026-04-25 01:52 | 38.51922 | -122.81475 | 211 ft | 82 kts | 157° |
| 2026-04-25 01:52 | 38.51414 | -122.81203 | 127 ft | 71 kts | 157° |
| 2026-04-25 01:53 | 38.51048 | -122.81006 | 131 ft | 42 kts | 157° |
| 2026-04-25 01:53 | 38.50882 | -122.80917 | 134 ft | 22 kts | 156° |
| 2026-04-25 01:53 | 38.50766 | -122.80854 | 132 ft | 12 kts | 155° |
| 2026-04-25 01:53 | 38.50730 | -122.80755 | 131 ft | 7 kts | 88° |
| 2026-04-25 01:54 | 38.50731 | -122.80710 | 130 ft | 0 kts | 88° |
| 2026-04-25 01:54 | 38.50732 | -122.80686 | 130 ft | 8 kts | 89° |
| 2026-04-25 01:55 | 38.50747 | -122.80625 | 130 ft | 9 kts | 359° |
| 2026-04-25 01:55 | 38.50823 | -122.80649 | 131 ft | 13 kts | 336° |
| 2026-04-25 01:55 | 38.50916 | -122.80700 | 134 ft | 16 kts | 338° |
| 2026-04-25 01:55 | 38.51020 | -122.80755 | 131 ft | 10 kts | 337° |
| 2026-04-25 01:56 | 38.51098 | -122.80796 | 131 ft | 14 kts | 338° |
| 2026-04-25 01:56 | 38.51160 | -122.80825 | 132 ft | 8 kts | 5° |
| 2026-04-25 01:56 | 38.51177 | -122.80779 | 132 ft | 0 kts | 89° |
| 2026-04-25 01:57 | 38.51177 | -122.80768 | 132 ft | 3 kts | 90° |
| 2026-04-25 01:57 | 38.51177 | -122.80728 | 132 ft | 6 kts | 89° |
| 2026-04-25 01:58 | 38.51178 | -122.80669 | 132 ft | 7 kts | 90° |
| 2026-04-25 01:58 | 38.51208 | -122.80635 | 132 ft | 8 kts | 359° |
| 2026-04-25 01:58 | 38.51253 | -122.80656 | 130 ft | 8 kts | 277° |
| 2026-04-25 01:58 | 38.51243 | -122.80697 | 130 ft | 5 kts | 202° |
| 2026-04-25 01:59 | 38.51229 | -122.80699 | 130 ft | 0 kts | 183° |
| 2026-04-25 01:59 | 38.51226 | -122.80699 | 130 ft | 1 kts | 181° |